createdAt,value
2019-03-05T00:00:28.301Z,0.00
2019-03-05T00:01:28.287Z,0.00
2019-03-05T00:02:28.269Z,0.00
2019-03-05T00:03:28.257Z,0.00
2019-03-05T00:04:28.243Z,0.00
2019-03-05T00:05:28.228Z,0.00
2019-03-05T00:06:28.214Z,0.00
2019-03-05T00:07:28.202Z,0.00
2019-03-05T00:08:28.188Z,0.00
2019-03-05T00:09:28.173Z,0.00
2019-03-05T00:10:28.162Z,0.00
2019-03-05T00:11:28.146Z,0.00
2019-03-05T00:12:28.134Z,0.00
2019-03-05T00:13:28.119Z,0.00
2019-03-05T00:14:28.106Z,0.00
2019-03-05T00:15:28.095Z,0.00
2019-03-05T00:16:28.080Z,0.00
2019-03-05T00:17:28.064Z,0.00
2019-03-05T00:18:28.057Z,0.00
2019-03-05T00:19:28.038Z,0.00
2019-03-05T00:20:28.026Z,0.00
2019-03-05T00:21:28.015Z,0.00
2019-03-05T00:22:28.000Z,0.00
2019-03-05T00:23:27.986Z,0.00
2019-03-05T00:24:27.973Z,0.00
2019-03-05T00:25:27.960Z,0.00
2019-03-05T00:26:27.946Z,0.00
2019-03-05T00:27:27.932Z,0.00
2019-03-05T00:28:27.919Z,0.00
2019-03-05T00:29:27.906Z,0.00
2019-03-05T00:30:27.893Z,0.00
2019-03-05T00:31:27.879Z,0.00
2019-03-05T00:32:27.865Z,0.00
2019-03-05T00:33:27.852Z,0.00
2019-03-05T00:34:27.844Z,0.00
2019-03-05T00:35:27.829Z,0.00
2019-03-05T00:36:27.812Z,0.00
2019-03-05T00:37:27.797Z,0.00
2019-03-05T00:38:27.784Z,0.00
2019-03-05T00:39:27.775Z,0.00
2019-03-05T00:40:27.760Z,0.00
2019-03-05T00:41:27.747Z,0.00
2019-03-05T00:42:27.730Z,0.00
2019-03-05T00:43:27.719Z,0.00
2019-03-05T00:44:27.707Z,0.00
2019-03-05T00:45:27.690Z,0.00
2019-03-05T00:46:27.679Z,0.00
2019-03-05T00:47:27.668Z,0.00
2019-03-05T00:48:27.654Z,0.00
2019-03-05T00:49:27.639Z,0.00
2019-03-05T00:50:27.626Z,0.00
2019-03-05T00:51:27.622Z,0.00
2019-03-05T00:52:27.600Z,0.00
2019-03-05T00:53:27.585Z,0.00
2019-03-05T00:54:27.574Z,0.00
2019-03-05T00:55:27.559Z,0.00
2019-03-05T00:56:27.595Z,0.00
2019-03-05T00:57:27.534Z,0.00
2019-03-05T00:58:27.521Z,0.00
2019-03-05T00:59:27.507Z,0.00
2019-03-05T01:00:27.493Z,0.00
2019-03-05T01:01:27.479Z,0.00
2019-03-05T01:02:27.467Z,0.00
2019-03-05T01:03:27.454Z,0.00
2019-03-05T01:04:27.440Z,0.00
2019-03-05T01:05:27.429Z,0.00
2019-03-05T01:06:27.416Z,0.00
2019-03-05T01:07:27.411Z,0.00
2019-03-05T01:08:27.387Z,0.00
2019-03-05T01:09:27.373Z,0.00
2019-03-05T01:10:27.361Z,0.00
2019-03-05T01:11:27.352Z,0.00
2019-03-05T01:12:27.334Z,0.00
2019-03-05T01:13:27.320Z,0.00
2019-03-05T01:14:27.310Z,0.00
2019-03-05T01:15:27.295Z,0.00
2019-03-05T01:16:27.281Z,0.00
2019-03-05T01:17:27.267Z,0.00
2019-03-05T01:18:27.255Z,0.00
2019-03-05T01:19:27.244Z,0.00
2019-03-05T01:20:27.229Z,0.00
2019-03-05T01:21:27.216Z,0.00
2019-03-05T01:22:27.204Z,0.00
2019-03-05T01:23:27.217Z,0.00
2019-03-05T01:24:27.177Z,0.00
2019-03-05T01:25:27.163Z,0.00
2019-03-05T01:26:27.149Z,0.00
2019-03-05T01:27:27.136Z,0.00
2019-03-05T01:28:27.124Z,0.00
2019-03-05T01:29:27.108Z,0.00
2019-03-05T01:30:27.098Z,0.00
2019-03-05T01:31:27.084Z,0.00
2019-03-05T01:32:27.071Z,0.00
2019-03-05T01:33:27.133Z,0.00
2019-03-05T01:34:27.049Z,0.00
2019-03-05T01:35:27.031Z,0.00
2019-03-05T01:36:27.061Z,0.00
2019-03-05T01:37:27.007Z,0.00
2019-03-05T01:38:26.991Z,0.00
2019-03-05T01:39:26.980Z,0.00
2019-03-05T01:40:26.966Z,0.00
2019-03-05T01:41:26.951Z,0.00
2019-03-05T01:42:26.940Z,0.00
2019-03-05T01:43:26.926Z,0.00
2019-03-05T01:44:26.913Z,0.00
2019-03-05T01:45:26.899Z,0.00
2019-03-05T01:46:26.886Z,0.00
2019-03-05T01:47:26.875Z,0.00
2019-03-05T01:48:26.862Z,0.00
2019-03-05T01:49:26.850Z,0.00
2019-03-05T01:50:26.835Z,0.00
2019-03-05T01:51:26.822Z,0.00
2019-03-05T01:52:26.808Z,0.00
2019-03-05T01:53:26.796Z,0.00
2019-03-05T01:54:26.780Z,0.00
2019-03-05T01:55:26.768Z,0.00
2019-03-05T01:56:26.755Z,0.00
2019-03-05T01:57:26.744Z,0.00
2019-03-05T01:58:26.728Z,0.00
2019-03-05T01:59:26.716Z,0.00
2019-03-05T02:00:26.703Z,0.00
2019-03-05T02:01:26.688Z,0.00
2019-03-05T02:02:26.683Z,0.00
2019-03-05T02:03:26.660Z,0.00
2019-03-05T02:04:26.654Z,0.00
2019-03-05T02:05:26.634Z,0.00
2019-03-05T02:06:26.624Z,0.00
2019-03-05T02:07:26.611Z,0.00
2019-03-05T02:08:26.599Z,0.00
2019-03-05T02:09:26.582Z,0.00
2019-03-05T02:10:26.568Z,0.00
2019-03-05T02:11:26.557Z,0.00
2019-03-05T02:12:26.547Z,0.00
2019-03-05T02:13:26.531Z,0.00
2019-03-05T02:14:26.517Z,0.00
2019-03-05T02:15:26.507Z,0.00
2019-03-05T02:16:26.493Z,0.00
2019-03-05T02:17:26.478Z,0.00
2019-03-05T02:18:26.465Z,0.00
2019-03-05T02:19:26.451Z,0.00
2019-03-05T02:20:26.439Z,0.00
2019-03-05T02:21:26.425Z,0.00
2019-03-05T02:22:26.412Z,0.00
2019-03-05T02:23:26.399Z,0.00
2019-03-05T02:24:26.386Z,0.00
2019-03-05T02:25:26.373Z,0.00
2019-03-05T02:26:26.360Z,0.00
2019-03-05T02:27:26.345Z,0.00
2019-03-05T02:28:26.333Z,0.00
2019-03-05T02:29:26.320Z,0.00
2019-03-05T02:30:26.308Z,0.00
2019-03-05T02:31:26.293Z,0.00
2019-03-05T02:32:26.281Z,0.00
2019-03-05T02:33:26.265Z,0.00
2019-03-05T02:34:26.252Z,0.00
2019-03-05T02:35:26.239Z,0.00
2019-03-05T02:36:26.227Z,0.00
2019-03-05T02:37:26.212Z,0.00
2019-03-05T02:38:26.199Z,0.00
2019-03-05T02:39:26.186Z,0.00
2019-03-05T02:40:26.182Z,0.00
2019-03-05T02:41:26.161Z,0.00
2019-03-05T02:42:26.145Z,0.00
2019-03-05T02:43:26.132Z,0.00
2019-03-05T02:44:26.119Z,0.00
2019-03-05T02:45:26.104Z,0.00
2019-03-05T02:46:26.091Z,0.00
2019-03-05T02:47:26.099Z,0.00
2019-03-05T02:48:26.065Z,0.00
2019-03-05T02:49:26.065Z,0.00
2019-03-05T02:50:26.040Z,0.00
2019-03-05T02:51:26.025Z,0.00
2019-03-05T02:52:26.011Z,0.00
2019-03-05T02:53:26.020Z,0.00
2019-03-05T02:54:25.987Z,0.00
2019-03-05T02:55:25.970Z,0.00
2019-03-05T02:56:25.957Z,0.00
2019-03-05T02:57:25.950Z,0.00
2019-03-05T02:58:25.929Z,0.00
2019-03-05T02:59:25.918Z,0.00
2019-03-05T03:00:25.906Z,0.00
2019-03-05T03:01:25.892Z,0.00
2019-03-05T03:02:25.876Z,0.00
2019-03-05T03:03:25.865Z,0.00
2019-03-05T03:04:25.851Z,0.00
2019-03-05T03:05:25.836Z,0.00
2019-03-05T03:06:25.823Z,0.00
2019-03-05T03:07:25.810Z,0.00
2019-03-05T03:08:25.796Z,0.00
2019-03-05T03:09:25.850Z,0.00
2019-03-05T03:10:25.769Z,0.00
2019-03-05T03:11:25.756Z,0.00
2019-03-05T03:12:25.742Z,0.00
2019-03-05T03:13:25.729Z,0.00
2019-03-05T03:14:25.713Z,0.00
2019-03-05T03:15:25.700Z,0.00
2019-03-05T03:16:25.690Z,0.00
2019-03-05T03:17:25.675Z,0.00
2019-03-05T03:18:25.660Z,0.00
2019-03-05T03:19:25.654Z,0.00
2019-03-05T03:20:25.636Z,0.00
2019-03-05T03:21:25.620Z,0.00
2019-03-05T03:22:25.607Z,0.00
2019-03-05T03:23:25.595Z,0.00
2019-03-05T03:24:25.585Z,0.00
2019-03-05T03:25:25.567Z,0.00
2019-03-05T03:26:25.553Z,0.00
2019-03-05T03:27:25.540Z,0.00
2019-03-05T03:28:25.525Z,0.00
2019-03-05T03:29:25.544Z,0.00
2019-03-05T03:30:25.502Z,0.00
2019-03-05T03:31:25.515Z,0.00
2019-03-05T03:32:25.482Z,0.00
2019-03-05T03:33:25.477Z,0.00
2019-03-05T03:34:25.512Z,0.00
2019-03-05T03:35:25.432Z,0.00
2019-03-05T03:36:25.421Z,0.00
2019-03-05T03:37:25.428Z,0.00
2019-03-05T03:38:25.391Z,0.00
2019-03-05T03:39:25.393Z,0.00
2019-03-05T03:40:25.365Z,0.00
2019-03-05T03:41:25.349Z,0.00
2019-03-05T03:42:25.340Z,0.00
2019-03-05T03:43:25.323Z,0.00
2019-03-05T03:44:25.310Z,0.00
2019-03-05T03:45:25.304Z,0.00
2019-03-05T03:46:25.283Z,0.00
2019-03-05T03:47:25.272Z,0.00
2019-03-05T03:48:25.263Z,0.00
2019-03-05T03:49:25.283Z,0.00
2019-03-05T03:50:25.227Z,0.00
2019-03-05T03:51:25.216Z,0.00
2019-03-05T03:52:25.207Z,0.00
2019-03-05T03:53:25.187Z,0.00
2019-03-05T03:54:25.182Z,0.00
2019-03-05T03:55:25.162Z,0.00
2019-03-05T03:56:25.149Z,0.00
2019-03-05T03:57:25.137Z,0.00
2019-03-05T03:58:25.124Z,0.00
2019-03-05T03:59:25.108Z,0.00
2019-03-05T04:00:25.093Z,0.00
2019-03-05T04:01:25.084Z,0.00
2019-03-05T04:02:25.067Z,0.00
2019-03-05T04:03:25.055Z,0.00
2019-03-05T04:04:25.040Z,0.00
2019-03-05T04:05:25.028Z,0.00
2019-03-05T04:06:25.016Z,0.00
2019-03-05T04:07:25.007Z,0.00
2019-03-05T04:08:24.989Z,0.00
2019-03-05T04:09:24.975Z,0.00
2019-03-05T04:10:24.960Z,0.00
2019-03-05T04:11:24.945Z,0.00
2019-03-05T04:12:24.932Z,0.00
2019-03-05T04:13:24.916Z,0.00
2019-03-05T04:14:24.924Z,0.00
2019-03-05T04:15:24.888Z,0.00
2019-03-05T04:16:24.875Z,0.00
2019-03-05T04:17:24.861Z,0.00
2019-03-05T04:18:24.852Z,0.00
2019-03-05T04:19:24.833Z,0.00
2019-03-05T04:20:24.821Z,0.00
2019-03-05T04:21:24.808Z,0.00
2019-03-05T04:22:24.790Z,0.00
2019-03-05T04:23:24.780Z,0.00
2019-03-05T04:24:24.770Z,0.00
2019-03-05T04:25:24.755Z,0.00
2019-03-05T04:26:24.739Z,0.00
2019-03-05T04:27:24.818Z,0.00
2019-03-05T04:28:24.713Z,0.00
2019-03-05T04:29:24.702Z,0.00
2019-03-05T04:30:24.696Z,0.00
2019-03-05T04:31:24.671Z,0.00
2019-03-05T04:32:24.666Z,0.00
2019-03-05T04:33:24.645Z,0.00
2019-03-05T04:34:24.630Z,0.00
2019-03-05T04:35:24.617Z,0.00
2019-03-05T04:36:24.605Z,0.00
2019-03-05T04:37:24.650Z,0.00
2019-03-05T04:38:24.574Z,0.00
2019-03-05T04:39:24.562Z,0.00
2019-03-05T04:40:24.550Z,0.00
2019-03-05T04:41:24.536Z,0.00
2019-03-05T04:42:24.530Z,0.00
2019-03-05T04:43:24.513Z,0.00
2019-03-05T04:44:24.496Z,0.00
2019-03-05T04:45:24.486Z,0.00
2019-03-05T04:46:24.470Z,0.00
2019-03-05T04:47:24.454Z,0.00
2019-03-05T04:48:24.439Z,0.00
2019-03-05T04:49:26.503Z,0.00
2019-03-05T04:50:24.414Z,0.00
2019-03-05T04:51:24.402Z,0.00
2019-03-05T04:52:24.425Z,0.00
2019-03-05T04:53:24.375Z,0.00
2019-03-05T04:54:24.375Z,0.00
2019-03-05T04:55:24.343Z,0.00
2019-03-05T04:56:24.332Z,0.00
2019-03-05T04:57:24.316Z,0.00
2019-03-05T04:58:24.305Z,0.00
2019-03-05T04:59:24.292Z,0.00
2019-03-05T05:00:24.276Z,0.00
2019-03-05T05:01:24.264Z,0.00
2019-03-05T05:02:24.314Z,0.00
2019-03-05T05:03:24.238Z,0.00
2019-03-05T05:04:24.221Z,0.00
2019-03-05T05:05:24.208Z,0.00
2019-03-05T05:06:24.193Z,0.00
2019-03-05T05:07:24.185Z,0.00
2019-03-05T05:08:24.186Z,0.00
2019-03-05T05:09:24.155Z,0.00
2019-03-05T05:10:24.144Z,0.00
2019-03-05T05:11:24.131Z,0.00
2019-03-05T05:12:24.109Z,0.00
2019-03-05T05:13:24.096Z,0.00
2019-03-05T05:14:24.084Z,0.00
2019-03-05T05:15:24.071Z,0.00
2019-03-05T05:16:24.054Z,0.00
2019-03-05T05:17:24.040Z,0.00
2019-03-05T05:18:24.029Z,0.00
2019-03-05T05:19:24.016Z,0.00
2019-03-05T05:20:23.999Z,0.00
2019-03-05T05:21:23.986Z,0.00
2019-03-05T05:22:23.973Z,0.00
2019-03-05T05:23:23.959Z,0.00
2019-03-05T05:24:23.945Z,0.00
2019-03-05T05:25:23.931Z,0.00
2019-03-05T05:26:23.917Z,0.00
2019-03-05T05:27:23.904Z,0.00
2019-03-05T05:28:23.892Z,0.00
2019-03-05T05:29:23.882Z,0.00
2019-03-05T05:30:23.864Z,0.00
2019-03-05T05:31:23.851Z,0.00
2019-03-05T05:32:23.836Z,0.00
2019-03-05T05:33:23.840Z,0.00
2019-03-05T05:34:23.807Z,0.00
2019-03-05T05:35:23.795Z,0.00
2019-03-05T05:36:23.784Z,0.00
2019-03-05T05:37:23.773Z,0.00
2019-03-05T05:38:23.753Z,0.00
2019-03-05T05:39:23.737Z,4.00
2019-03-05T05:40:23.728Z,0.00
2019-03-05T05:41:23.710Z,0.00
2019-03-05T05:42:23.694Z,4.00
2019-03-05T05:43:23.681Z,4.00
2019-03-05T05:44:23.669Z,4.00
2019-03-05T05:45:23.730Z,8.00
2019-03-05T05:46:23.640Z,8.00
2019-03-05T05:47:23.626Z,12.00
2019-03-05T05:48:23.616Z,16.00
2019-03-05T05:49:23.610Z,16.00
2019-03-05T05:50:23.589Z,20.00
2019-03-05T05:51:23.571Z,24.00
2019-03-05T05:52:23.556Z,24.00
2019-03-05T05:53:23.544Z,24.00
2019-03-05T05:54:23.530Z,24.00
2019-03-05T05:55:23.516Z,28.00
2019-03-05T05:56:23.504Z,32.00
2019-03-05T05:57:23.487Z,40.00
2019-03-05T05:58:23.473Z,48.00
2019-03-05T05:59:23.459Z,60.00
2019-03-05T06:00:23.448Z,72.00
2019-03-05T06:01:23.433Z,80.00
2019-03-05T06:02:23.417Z,88.00
2019-03-05T06:03:23.406Z,100.00
2019-03-05T06:04:23.392Z,112.00
2019-03-05T06:05:23.378Z,120.00
2019-03-05T06:06:23.366Z,132.00
2019-03-05T06:07:23.350Z,128.00
2019-03-05T06:08:23.334Z,128.00
2019-03-05T06:09:23.403Z,144.00
2019-03-05T06:10:23.313Z,168.00
2019-03-05T06:11:23.293Z,196.00
2019-03-05T06:12:23.277Z,212.00
2019-03-05T06:13:23.270Z,228.00
2019-03-05T06:14:23.250Z,240.00
2019-03-05T06:15:23.238Z,244.00
2019-03-05T06:16:23.223Z,244.00
2019-03-05T06:17:23.210Z,244.00
2019-03-05T06:18:23.196Z,252.00
2019-03-05T06:19:23.182Z,276.00
2019-03-05T06:20:23.167Z,308.00
2019-03-05T06:21:23.153Z,332.00
2019-03-05T06:22:23.174Z,348.00
2019-03-05T06:23:23.125Z,360.00
2019-03-05T06:24:23.112Z,376.00
2019-03-05T06:25:23.097Z,392.00
2019-03-05T06:26:23.082Z,408.00
2019-03-05T06:27:23.067Z,420.00
2019-03-05T06:28:23.053Z,436.00
2019-03-05T06:29:23.040Z,444.00
2019-03-05T06:30:23.024Z,456.00
2019-03-05T06:31:23.014Z,468.00
2019-03-05T06:32:22.999Z,476.00
2019-03-05T06:33:22.983Z,488.00
2019-03-05T06:34:22.969Z,500.00
2019-03-05T06:35:22.957Z,560.00
2019-03-05T06:36:22.942Z,620.00
2019-03-05T06:37:22.930Z,624.00
2019-03-05T06:38:22.912Z,592.00
2019-03-05T06:39:22.901Z,564.00
2019-03-05T06:40:22.889Z,548.00
2019-03-05T06:41:22.870Z,544.00
2019-03-05T06:42:22.857Z,532.00
2019-03-05T06:43:22.844Z,544.00
2019-03-05T06:44:22.829Z,576.00
2019-03-05T06:45:22.815Z,604.00
2019-03-05T06:46:22.801Z,616.00
2019-03-05T06:47:22.789Z,592.00
2019-03-05T06:48:22.774Z,592.00
2019-03-05T06:49:22.761Z,604.00
2019-03-05T06:50:22.749Z,660.00
2019-03-05T06:51:22.733Z,808.00
2019-03-05T06:52:22.720Z,848.00
2019-03-05T06:53:22.705Z,808.00
2019-03-05T06:54:22.692Z,776.00
2019-03-05T06:55:22.676Z,768.00
2019-03-05T06:56:22.665Z,756.00
2019-03-05T06:57:22.647Z,784.00
2019-03-05T06:58:22.636Z,736.00
2019-03-05T06:59:22.623Z,724.00
2019-03-05T07:00:22.613Z,772.00
2019-03-05T07:01:22.593Z,884.00
2019-03-05T07:02:22.581Z,908.00
2019-03-05T07:03:22.567Z,936.00
2019-03-05T07:04:22.554Z,936.00
2019-03-05T07:05:22.539Z,976.00
2019-03-05T07:06:22.526Z,984.00
2019-03-05T07:07:22.512Z,992.00
2019-03-05T07:08:22.501Z,1036.00
2019-03-05T07:09:22.484Z,1036.00
2019-03-05T07:10:22.472Z,1060.00
2019-03-05T07:11:22.457Z,1116.00
2019-03-05T07:12:22.443Z,1092.00
2019-03-05T07:13:22.430Z,1052.00
2019-03-05T07:14:22.418Z,1048.00
2019-03-05T07:15:22.418Z,1044.00
2019-03-05T07:16:22.393Z,1060.00
2019-03-05T07:17:22.377Z,1100.00
2019-03-05T07:18:23.659Z,1112.00
2019-03-05T07:19:22.351Z,1084.00
2019-03-05T07:20:22.338Z,1144.00
2019-03-05T07:21:22.325Z,1228.00
2019-03-05T07:22:22.314Z,1324.00
2019-03-05T07:23:22.298Z,1376.00
2019-03-05T07:24:22.285Z,1372.00
2019-03-05T07:25:22.272Z,1340.00
2019-03-05T07:26:22.258Z,1356.00
2019-03-05T07:27:22.245Z,1336.00
2019-03-05T07:28:22.232Z,1328.00
2019-03-05T07:29:22.218Z,1300.00
2019-03-05T07:30:22.205Z,1296.00
2019-03-05T07:31:22.190Z,1316.00
2019-03-05T07:32:22.178Z,1284.00
2019-03-05T07:33:22.164Z,1248.00
2019-03-05T07:34:22.150Z,1236.00
2019-03-05T07:35:22.138Z,1236.00
2019-03-05T07:36:22.127Z,1244.00
2019-03-05T07:37:22.113Z,1252.00
2019-03-05T07:38:22.098Z,1252.00
2019-03-05T07:39:22.086Z,1256.00
2019-03-05T07:40:22.074Z,1260.00
2019-03-05T07:41:22.061Z,1068.00
2019-03-05T07:42:22.047Z,1280.00
2019-03-05T07:43:22.035Z,1276.00
2019-03-05T07:44:22.022Z,1256.00
2019-03-05T07:45:22.009Z,1280.00
2019-03-05T07:46:21.998Z,1288.00
2019-03-05T07:47:21.985Z,1296.00
2019-03-05T07:48:21.971Z,1300.00
2019-03-05T07:49:21.961Z,1300.00
2019-03-05T07:50:21.945Z,1304.00
2019-03-05T07:51:21.938Z,1312.00
2019-03-05T07:52:21.922Z,1316.00
2019-03-05T07:53:21.907Z,1108.00
2019-03-05T07:54:21.896Z,1320.00
2019-03-05T07:55:21.883Z,1328.00
2019-03-05T07:56:21.872Z,1332.00
2019-03-05T07:57:21.858Z,1336.00
2019-03-05T07:58:21.846Z,1340.00
2019-03-05T07:59:21.840Z,1344.00
2019-03-05T08:00:21.822Z,1348.00
2019-03-05T08:01:22.739Z,1352.00
2019-03-05T08:02:21.796Z,1352.00
2019-03-05T08:03:21.784Z,1356.00
2019-03-05T08:04:21.773Z,1368.00
2019-03-05T08:05:21.760Z,1368.00
2019-03-05T08:06:21.748Z,1372.00
2019-03-05T08:07:21.735Z,1376.00
2019-03-05T08:08:26.634Z,1380.00
2019-03-05T08:09:21.711Z,1384.00
2019-03-05T08:10:21.700Z,1396.00
2019-03-05T08:11:21.689Z,1400.00
2019-03-05T08:12:21.677Z,1404.00
2019-03-05T08:13:21.666Z,1416.00
2019-03-05T08:14:21.660Z,1412.00
2019-03-05T08:15:21.643Z,1416.00
2019-03-05T08:16:21.627Z,1420.00
2019-03-05T08:17:21.615Z,1428.00
2019-03-05T08:18:21.605Z,1436.00
2019-03-05T08:19:21.593Z,1440.00
2019-03-05T08:20:21.584Z,1464.00
2019-03-05T08:21:21.569Z,1496.00
2019-03-05T08:22:21.557Z,1480.00
2019-03-05T08:23:21.553Z,1488.00
2019-03-05T08:24:21.535Z,1508.00
2019-03-05T08:25:21.523Z,1528.00
2019-03-05T08:26:21.510Z,1556.00
2019-03-05T08:27:21.499Z,1604.00
2019-03-05T08:28:21.492Z,1620.00
2019-03-05T08:29:21.475Z,1624.00
2019-03-05T08:30:21.465Z,1616.00
2019-03-05T08:31:21.453Z,1628.00
2019-03-05T08:32:21.442Z,1624.00
2019-03-05T08:33:21.430Z,1660.00
2019-03-05T08:34:21.419Z,1712.00
2019-03-05T08:35:21.407Z,1716.00
2019-03-05T08:36:21.396Z,1704.00
2019-03-05T08:37:21.384Z,1712.00
2019-03-05T08:38:21.374Z,1740.00
2019-03-05T08:39:21.362Z,1764.00
2019-03-05T08:40:21.351Z,1776.00
2019-03-05T08:41:21.339Z,1800.00
2019-03-05T08:42:21.329Z,1792.00
2019-03-05T08:43:21.318Z,1772.00
2019-03-05T08:44:21.307Z,1828.00
2019-03-05T08:45:29.210Z,1864.00
2019-03-05T08:46:21.284Z,1860.00
2019-03-05T08:47:21.273Z,1880.00
2019-03-05T08:48:21.263Z,1864.00
2019-03-05T08:49:21.253Z,1880.00
2019-03-05T08:50:21.242Z,1892.00
2019-03-05T08:51:21.234Z,1876.00
2019-03-05T08:52:21.221Z,1844.00
2019-03-05T08:53:21.207Z,1860.00
2019-03-05T08:54:21.197Z,1844.00
2019-03-05T08:55:21.187Z,1800.00
2019-03-05T08:56:21.175Z,1760.00
2019-03-05T08:57:21.169Z,1744.00
2019-03-05T08:58:21.155Z,1780.00
2019-03-05T08:59:21.151Z,1808.00
2019-03-05T09:00:21.134Z,1820.00
2019-03-05T09:01:21.123Z,1804.00
2019-03-05T09:02:21.125Z,1856.00
2019-03-05T09:03:21.102Z,1836.00
2019-03-05T09:04:21.091Z,1852.00
2019-03-05T09:05:21.087Z,1840.00
2019-03-05T09:06:21.069Z,1812.00
2019-03-05T09:07:21.059Z,1828.00
2019-03-05T09:08:21.049Z,1788.00
2019-03-05T09:09:21.038Z,1732.00
2019-03-05T09:10:21.030Z,1732.00
2019-03-05T09:11:21.018Z,1788.00
2019-03-05T09:12:21.009Z,1824.00
2019-03-05T09:13:31.972Z,1828.00
2019-03-05T09:14:20.986Z,1800.00
2019-03-05T09:15:20.976Z,1840.00
2019-03-05T09:16:20.966Z,1908.00
2019-03-05T09:17:20.955Z,1884.00
2019-03-05T09:18:20.945Z,1960.00
2019-03-05T09:19:20.935Z,1968.00
2019-03-05T09:20:20.985Z,1988.00
2019-03-05T09:21:20.916Z,1984.00
2019-03-05T09:22:20.909Z,2020.00
2019-03-05T09:23:20.923Z,2040.00
2019-03-05T09:24:20.887Z,2020.00
2019-03-05T09:25:20.877Z,1948.00
2019-03-05T09:26:20.870Z,1972.00
2019-03-05T09:27:20.857Z,1976.00
2019-03-05T09:28:20.847Z,1976.00
2019-03-05T09:29:20.836Z,1980.00
2019-03-05T09:30:20.834Z,2016.00
2019-03-05T09:31:20.816Z,2020.00
2019-03-05T09:32:20.807Z,2112.00
2019-03-05T09:33:20.795Z,2156.00
2019-03-05T09:34:20.787Z,2184.00
2019-03-05T09:35:20.781Z,2232.00
2019-03-05T09:36:20.769Z,2232.00
2019-03-05T09:37:20.760Z,2172.00
2019-03-05T09:38:20.746Z,1616.00
2019-03-05T09:39:20.737Z,1896.00
2019-03-05T09:40:20.727Z,2284.00
2019-03-05T09:41:20.718Z,2260.00
2019-03-05T09:42:20.708Z,1920.00
2019-03-05T09:43:20.698Z,2352.00
2019-03-05T09:44:20.702Z,2012.00
2019-03-05T09:45:20.679Z,2524.00
2019-03-05T09:46:20.678Z,2524.00
2019-03-05T09:47:20.658Z,2532.00
2019-03-05T09:48:20.649Z,2676.00
2019-03-05T09:49:20.638Z,2788.00
2019-03-05T09:50:20.630Z,2800.00
2019-03-05T09:51:20.621Z,2700.00
2019-03-05T09:52:20.609Z,2384.00
2019-03-05T09:53:20.601Z,2524.00
2019-03-05T09:54:20.592Z,2520.00
2019-03-05T09:55:20.584Z,2376.00
2019-03-05T09:56:20.571Z,2660.00
2019-03-05T09:57:20.561Z,2348.00
2019-03-05T09:58:20.556Z,2668.00
2019-03-05T09:59:20.547Z,2968.00
2019-03-05T10:00:20.545Z,2964.00
2019-03-05T10:01:20.527Z,2912.00
2019-03-05T10:02:20.517Z,2876.00
2019-03-05T10:03:20.510Z,3036.00
2019-03-05T10:04:20.497Z,2992.00
2019-03-05T10:05:20.487Z,3016.00
2019-03-05T10:06:20.483Z,2948.00
2019-03-05T10:07:20.468Z,2880.00
2019-03-05T10:08:31.698Z,2812.00
2019-03-05T10:09:20.450Z,2772.00
2019-03-05T10:10:20.442Z,2892.00
2019-03-05T10:11:20.434Z,3092.00
2019-03-05T10:12:20.424Z,3204.00
2019-03-05T10:13:20.415Z,3272.00
2019-03-05T10:14:20.406Z,3264.00
2019-03-05T10:15:20.396Z,3184.00
2019-03-05T10:16:20.391Z,3092.00
2019-03-05T10:17:20.381Z,3008.00
2019-03-05T10:18:20.370Z,2964.00
2019-03-05T10:19:20.365Z,2968.00
2019-03-05T10:20:20.361Z,2908.00
2019-03-05T10:21:20.352Z,2792.00
2019-03-05T10:22:20.341Z,2796.00
2019-03-05T10:23:20.332Z,2816.00
2019-03-05T10:24:20.329Z,2796.00
2019-03-05T10:25:20.315Z,2812.00
2019-03-05T10:26:20.309Z,2904.00
2019-03-05T10:27:20.296Z,2900.00
2019-03-05T10:28:20.290Z,2728.00
2019-03-05T10:29:20.281Z,2296.00
2019-03-05T10:30:24.901Z,3148.00
2019-03-05T10:31:20.262Z,3100.00
2019-03-05T10:32:20.254Z,3108.00
2019-03-05T10:33:20.246Z,3152.00
2019-03-05T10:34:20.237Z,2608.00
2019-03-05T10:35:20.733Z,2328.00
2019-03-05T10:36:20.223Z,2824.00
2019-03-05T10:37:20.213Z,3132.00
2019-03-05T10:38:20.209Z,3036.00
2019-03-05T10:39:29.878Z,3052.00
2019-03-05T10:40:20.192Z,3180.00
2019-03-05T10:41:20.187Z,3124.00
2019-03-05T10:42:20.171Z,3100.00
2019-03-05T10:43:20.167Z,3108.00
2019-03-05T10:44:20.158Z,3120.00
2019-03-05T10:45:20.147Z,3084.00
2019-03-05T10:46:20.140Z,2308.00
2019-03-05T10:47:20.132Z,3060.00
2019-03-05T10:48:20.124Z,3096.00
2019-03-05T10:49:20.117Z,3012.00
2019-03-05T10:50:20.108Z,3060.00
2019-03-05T10:51:20.101Z,3072.00
2019-03-05T10:52:20.095Z,3024.00
2019-03-05T10:53:20.083Z,2952.00
2019-03-05T10:54:20.075Z,2840.00
2019-03-05T10:55:26.396Z,2732.00
2019-03-05T10:56:20.065Z,2776.00
2019-03-05T10:57:20.053Z,2912.00
2019-03-05T10:58:20.043Z,2984.00
2019-03-05T10:59:20.037Z,2920.00
2019-03-05T11:00:20.031Z,2728.00
2019-03-05T11:01:20.022Z,2780.00
2019-03-05T11:02:20.012Z,2856.00
2019-03-05T11:03:20.004Z,3052.00
2019-03-05T11:04:19.998Z,3124.00
2019-03-05T11:05:19.988Z,3056.00
2019-03-05T11:06:19.980Z,3236.00
2019-03-05T11:07:19.973Z,2576.00
2019-03-05T11:08:19.966Z,2296.00
2019-03-05T11:09:19.956Z,3004.00
2019-03-05T11:10:19.955Z,2468.00
2019-03-05T11:11:19.941Z,2280.00
2019-03-05T11:12:19.936Z,2124.00
2019-03-05T11:13:19.926Z,1892.00
2019-03-05T11:14:19.920Z,1756.00
2019-03-05T11:15:19.913Z,1620.00
2019-03-05T11:16:30.153Z,1592.00
2019-03-05T11:17:19.897Z,1536.00
2019-03-05T11:18:28.981Z,1464.00
2019-03-05T11:19:19.879Z,1424.00
2019-03-05T11:20:19.874Z,1448.00
2019-03-05T11:21:19.902Z,1480.00
2019-03-05T11:22:19.854Z,1428.00
2019-03-05T11:23:19.853Z,1340.00
2019-03-05T11:24:19.841Z,1280.00
2019-03-05T11:25:19.833Z,1280.00
2019-03-05T11:26:19.821Z,1276.00
2019-03-05T11:27:19.812Z,1312.00
2019-03-05T11:28:19.807Z,1412.00
2019-03-05T11:29:19.795Z,1468.00
2019-03-05T11:30:19.787Z,1540.00
2019-03-05T11:31:19.779Z,1556.00
2019-03-05T11:32:19.773Z,1552.00
2019-03-05T11:33:19.763Z,1432.00
2019-03-05T11:34:19.751Z,1456.00
2019-03-05T11:35:19.744Z,1540.00
2019-03-05T11:36:19.737Z,1632.00
2019-03-05T11:37:19.729Z,1672.00
2019-03-05T11:38:19.949Z,1628.00
2019-03-05T11:39:19.708Z,1572.00
2019-03-05T11:40:21.283Z,1544.00
2019-03-05T11:41:19.694Z,1584.00
2019-03-05T11:42:19.683Z,1764.00
2019-03-05T11:43:19.673Z,1808.00
2019-03-05T11:44:19.664Z,1832.00
2019-03-05T11:45:19.654Z,1884.00
2019-03-05T11:46:19.648Z,1848.00
2019-03-05T11:47:19.639Z,1768.00
2019-03-05T11:48:19.628Z,1840.00
2019-03-05T11:49:19.619Z,1872.00
2019-03-05T11:50:19.612Z,1856.00
2019-03-05T11:51:19.604Z,1744.00
2019-03-05T11:52:19.593Z,1736.00
2019-03-05T11:53:19.583Z,1820.00
2019-03-05T11:54:19.577Z,1896.00
2019-03-05T11:55:19.566Z,2000.00
2019-03-05T11:56:19.559Z,2152.00
2019-03-05T11:57:19.547Z,2484.00
2019-03-05T11:58:19.538Z,2952.00
2019-03-05T11:59:19.531Z,2840.00
2019-03-05T12:00:19.520Z,2572.00
2019-03-05T12:01:19.513Z,2476.00
2019-03-05T12:02:21.931Z,2428.00
2019-03-05T12:03:19.495Z,2016.00
2019-03-05T12:04:19.485Z,2100.00
2019-03-05T12:05:19.477Z,2936.00
2019-03-05T12:06:19.468Z,2896.00
2019-03-05T12:07:19.457Z,2712.00
2019-03-05T12:08:19.454Z,2500.00
2019-03-05T12:09:19.439Z,2392.00
2019-03-05T12:10:19.434Z,2860.00
2019-03-05T12:11:19.426Z,2968.00
2019-03-05T12:12:19.420Z,3188.00
2019-03-05T12:13:19.405Z,3092.00
2019-03-05T12:14:19.399Z,3192.00
2019-03-05T12:15:19.389Z,2752.00
2019-03-05T12:16:19.383Z,3068.00
2019-03-05T12:17:19.372Z,2848.00
2019-03-05T12:18:19.364Z,3096.00
2019-03-05T12:19:19.382Z,2676.00
2019-03-05T12:20:19.348Z,3016.00
2019-03-05T12:21:19.339Z,2956.00
2019-03-05T12:22:19.331Z,2780.00
2019-03-05T12:23:19.321Z,2900.00
2019-03-05T12:24:19.893Z,3008.00
2019-03-05T12:25:19.306Z,2888.00
2019-03-05T12:26:19.299Z,3084.00
2019-03-05T12:27:19.293Z,2684.00
2019-03-05T12:28:19.282Z,2848.00
2019-03-05T12:29:19.273Z,2804.00
2019-03-05T12:30:19.268Z,2944.00
2019-03-05T12:31:19.257Z,2956.00
2019-03-05T12:32:19.249Z,3160.00
2019-03-05T12:33:19.240Z,3208.00
2019-03-05T12:34:19.239Z,2948.00
2019-03-05T12:35:19.226Z,2748.00
2019-03-05T12:36:19.219Z,3000.00
2019-03-05T12:37:19.211Z,2676.00
2019-03-05T12:38:19.203Z,2880.00
2019-03-05T12:39:19.193Z,2668.00
2019-03-05T12:40:19.188Z,2712.00